createdAt,value
2022-09-12T00:00:00.308Z,91.4
2022-09-12T00:01:00.552Z,91.5
2022-09-12T00:02:00.661Z,91.5
2022-09-12T00:03:00.742Z,91.5
2022-09-12T00:04:00.890Z,91.5
2022-09-12T00:05:01.055Z,91.4
2022-09-12T00:06:01.191Z,91.4
2022-09-12T00:07:00.351Z,91.4
2022-09-12T00:08:00.488Z,91.5
2022-09-12T00:09:00.643Z,91.5
2022-09-12T00:10:00.780Z,91.4
2022-09-12T00:11:00.918Z,91.3
2022-09-12T00:12:01.061Z,91.1
2022-09-12T00:13:01.201Z,91
2022-09-12T00:14:00.359Z,90.9
2022-09-12T00:15:00.530Z,90.9
2022-09-12T00:16:00.643Z,90.9
2022-09-12T00:17:00.818Z,91
2022-09-12T00:18:00.961Z,91
2022-09-12T00:19:01.114Z,90.9
2022-09-12T00:21:00.374Z,90.9
2022-09-12T00:22:00.533Z,90.8
2022-09-12T00:23:00.649Z,90.8
2022-09-12T00:24:00.797Z,90.8
2022-09-12T00:25:00.950Z,91.1
2022-09-12T00:26:01.085Z,91.1
2022-09-12T00:27:01.251Z,91.3
2022-09-12T00:28:00.390Z,91.4
2022-09-12T00:29:00.528Z,91.3
2022-09-12T00:30:00.676Z,91.2
2022-09-12T00:31:00.816Z,91.2
2022-09-12T00:32:01.049Z,91.3
2022-09-12T00:33:01.110Z,91.5
2022-09-12T00:34:00.269Z,91.6
2022-09-12T00:35:00.404Z,91.7
2022-09-12T00:36:00.547Z,91.7
2022-09-12T00:37:00.724Z,91.8
2022-09-12T00:38:00.847Z,91.9
2022-09-12T00:39:00.992Z,91.8
2022-09-12T00:40:01.233Z,91.6
2022-09-12T00:41:00.277Z,91.6
2022-09-12T00:42:00.439Z,91.5
2022-09-12T00:43:00.582Z,91.5
2022-09-12T00:44:00.724Z,91.5
2022-09-12T00:45:00.865Z,91.4
2022-09-12T00:46:01.051Z,91.2
2022-09-12T00:47:01.186Z,91
2022-09-12T00:48:00.298Z,90.9
2022-09-12T00:49:00.448Z,90.8
2022-09-12T00:50:00.591Z,90.8
2022-09-12T00:51:00.749Z,91.1
2022-09-12T00:52:00.899Z,91.2
2022-09-12T00:53:01.067Z,91.4
2022-09-12T00:54:01.185Z,91.4
2022-09-12T00:55:00.350Z,91.4
2022-09-12T00:56:00.467Z,91.3
2022-09-12T00:57:00.625Z,91.1
2022-09-12T00:58:00.791Z,91.2
2022-09-12T00:59:00.915Z,91.2
2022-09-12T01:00:01.068Z,91.1
2022-09-12T01:01:01.366Z,91.1
2022-09-12T01:02:00.515Z,91.2
2022-09-12T01:03:00.536Z,91.1
2022-09-12T01:04:00.666Z,91.2
2022-09-12T01:05:00.821Z,91.3
2022-09-12T01:06:00.956Z,91.4
2022-09-12T01:07:01.096Z,91.5
2022-09-12T01:08:01.263Z,91.6
2022-09-12T01:09:00.400Z,91.6
2022-09-12T01:10:00.538Z,91.6
2022-09-12T01:11:00.681Z,91.6
2022-09-12T01:12:00.831Z,91.6
2022-09-12T01:13:00.997Z,91.7
2022-09-12T01:14:01.123Z,91.5
2022-09-12T01:15:00.278Z,91.2
2022-09-12T01:16:00.455Z,91.1
2022-09-12T01:17:00.576Z,91
2022-09-12T01:18:00.715Z,91.1
2022-09-12T01:19:00.874Z,91.2
2022-09-12T01:20:01.021Z,91.2
2022-09-12T01:21:01.196Z,91.3
2022-09-12T01:22:00.310Z,91.2
2022-09-12T01:23:00.462Z,91.5
2022-09-12T01:24:00.600Z,91.6
2022-09-12T01:25:00.754Z,91.6
2022-09-12T01:26:00.918Z,91.7
2022-09-12T01:27:01.049Z,91.9
2022-09-12T01:28:01.198Z,91.8
2022-09-12T01:29:00.332Z,91.9
2022-09-12T01:30:00.476Z,91.6
2022-09-12T01:31:00.660Z,91.6
2022-09-12T01:32:00.802Z,91.6
2022-09-12T01:33:00.925Z,91.7
2022-09-12T01:34:01.083Z,91.8
2022-09-12T01:35:01.222Z,91.8
2022-09-12T01:36:00.384Z,91.8
2022-09-12T01:37:00.519Z,91.7
2022-09-12T01:38:00.661Z,91.7
2022-09-12T01:39:00.810Z,91.6
2022-09-12T01:40:00.987Z,91.6
2022-09-12T01:41:01.123Z,91.5
2022-09-12T01:42:01.239Z,91.5
2022-09-12T01:43:00.382Z,91.6
2022-09-12T01:44:00.535Z,91.4
2022-09-12T01:45:00.678Z,91.2
2022-09-12T01:46:00.922Z,91.4
2022-09-12T01:47:00.975Z,91.4
2022-09-12T01:48:01.127Z,91.1
2022-09-12T01:49:00.261Z,90.9
2022-09-12T01:50:00.420Z,90.8
2022-09-12T01:51:00.584Z,91
2022-09-12T01:52:00.713Z,91
2022-09-12T01:53:00.844Z,90.9
2022-09-12T01:54:00.997Z,90.7
2022-09-12T01:55:01.136Z,90.7
2022-09-12T01:56:00.294Z,91
2022-09-12T01:57:00.436Z,91.1
2022-09-12T01:58:00.593Z,91.2
2022-09-12T01:59:00.741Z,91.4
2022-09-12T02:00:00.903Z,91.2
2022-09-12T02:01:01.090Z,91
2022-09-12T02:02:01.223Z,91.2
2022-09-12T02:03:00.337Z,91.3
2022-09-12T02:04:00.479Z,91.2
2022-09-12T02:05:00.628Z,91.2
2022-09-12T02:06:00.795Z,91.4
2022-09-12T02:07:00.927Z,91.5
2022-09-12T02:08:01.068Z,91.5
2022-09-12T02:09:01.208Z,91.4
2022-09-12T02:10:00.355Z,91.5
2022-09-12T02:11:00.517Z,91.6
2022-09-12T02:12:00.635Z,91.7
2022-09-12T02:13:00.793Z,91.6
2022-09-12T02:14:00.935Z,91.7
2022-09-12T02:15:01.089Z,91.8
2022-09-12T02:16:01.253Z,91.8
2022-09-12T02:17:00.403Z,91.9
2022-09-12T02:18:00.541Z,92
2022-09-12T02:19:00.684Z,92.1
2022-09-12T02:20:00.835Z,92.1
2022-09-12T02:21:00.974Z,92.1
2022-09-12T02:22:01.138Z,92.1
2022-09-12T02:23:00.264Z,92.1
2022-09-12T02:24:00.404Z,92
2022-09-12T02:25:00.563Z,92
2022-09-12T02:26:00.712Z,91.9
2022-09-12T02:27:00.869Z,91.9
2022-09-12T02:28:00.995Z,92
2022-09-12T02:29:01.147Z,91.7
2022-09-12T02:30:00.299Z,91.7
2022-09-12T02:31:00.497Z,91.6
2022-09-12T02:32:00.602Z,91.7
2022-09-12T02:33:00.753Z,92
2022-09-12T02:34:00.892Z,92
2022-09-12T02:35:01.046Z,92
2022-09-12T02:36:01.217Z,92
2022-09-12T02:37:00.356Z,92
2022-09-12T02:38:00.493Z,92.1
2022-09-12T02:39:00.645Z,92.3
2022-09-12T02:40:00.881Z,92.2
2022-09-12T02:41:00.971Z,92
2022-09-12T02:42:01.099Z,91.8
2022-09-12T02:43:01.233Z,91.8
2022-09-12T02:44:00.375Z,91.9
2022-09-12T02:45:00.514Z,91.8
2022-09-12T02:46:00.727Z,91.9
2022-09-12T02:47:00.817Z,91.9
2022-09-12T02:48:00.956Z,91.8
2022-09-12T02:49:01.097Z,91.6
2022-09-12T02:50:01.244Z,91.5
2022-09-12T02:51:00.403Z,91.5
2022-09-12T02:52:00.551Z,91.7
2022-09-12T02:53:00.690Z,91.8
2022-09-12T02:54:00.838Z,91.8
2022-09-12T02:55:00.986Z,91.7
2022-09-12T02:56:01.133Z,91.7
2022-09-12T02:57:00.298Z,91.6
2022-09-12T02:58:00.437Z,91.7
2022-09-12T02:59:00.588Z,91.7
2022-09-12T03:00:00.731Z,91.8
2022-09-12T03:01:00.903Z,91.8
2022-09-12T03:02:01.122Z,91.7
2022-09-12T03:03:01.207Z,91.7
2022-09-12T03:04:00.314Z,91.8
2022-09-12T03:05:00.474Z,91.7
2022-09-12T03:06:00.601Z,91.7
2022-09-12T03:07:00.757Z,91.7
2022-09-12T03:08:00.936Z,91.7
2022-09-12T03:09:01.057Z,91.5
2022-09-12T03:10:01.209Z,91.3
2022-09-12T03:11:00.351Z,91.3
2022-09-12T03:12:00.528Z,91.3
2022-09-12T03:13:00.646Z,91.5
2022-09-12T03:14:00.790Z,91.6
2022-09-12T03:15:00.945Z,91.6
2022-09-12T03:16:01.117Z,91.6
2022-09-12T03:17:01.261Z,91.7
2022-09-12T03:18:00.375Z,91.7
2022-09-12T03:19:00.531Z,91.8
2022-09-12T03:20:00.710Z,91.8
2022-09-12T03:21:00.825Z,91.8
2022-09-12T03:22:00.976Z,91.7
2022-09-12T03:23:01.171Z,91.7
2022-09-12T03:24:00.276Z,91.7
2022-09-12T03:25:00.413Z,91.7
2022-09-12T03:26:00.547Z,91.6
2022-09-12T03:27:00.687Z,91.5
2022-09-12T03:28:00.857Z,91.6
2022-09-12T03:29:00.988Z,91.8
2022-09-12T03:30:01.126Z,91.9
2022-09-12T03:31:00.366Z,92
2022-09-12T03:32:00.422Z,92
2022-09-12T03:33:00.598Z,92
2022-09-12T03:34:00.722Z,92.1
2022-09-12T03:35:00.883Z,92.1
2022-09-12T03:36:01.024Z,92.2
2022-09-12T03:37:01.172Z,92.2
2022-09-12T03:38:00.334Z,92.2
2022-09-12T03:39:00.461Z,92.2
2022-09-12T03:40:00.662Z,92.3
2022-09-12T03:41:00.758Z,92.2
2022-09-12T03:42:00.904Z,92.2
2022-09-12T03:43:01.072Z,92.2
2022-09-12T03:44:01.224Z,92.1
2022-09-12T03:45:00.342Z,92.1
2022-09-12T03:46:00.539Z,92
2022-09-12T03:47:00.639Z,92.1
2022-09-12T03:48:00.785Z,92.1
2022-09-12T03:49:00.949Z,92.1
2022-09-12T03:50:01.088Z,92.3
2022-09-12T03:51:01.234Z,92.4
2022-09-12T03:52:00.380Z,92.4
2022-09-12T03:53:00.531Z,92.4
2022-09-12T03:54:00.690Z,92.5
2022-09-12T03:55:00.848Z,92.5
2022-09-12T03:56:00.984Z,92.6
2022-09-12T03:57:01.134Z,92.7
2022-09-12T03:58:00.273Z,92.7
2022-09-12T03:59:00.431Z,92.7
2022-09-12T04:00:00.589Z,92.7
2022-09-12T04:01:00.763Z,92.7
2022-09-12T04:02:00.863Z,92.7
2022-09-12T04:03:01.010Z,92.8
2022-09-12T04:04:01.156Z,93
2022-09-12T04:05:00.331Z,93.1
2022-09-12T04:06:00.460Z,93.1
2022-09-12T04:07:00.604Z,93.1
2022-09-12T04:08:00.760Z,93.1
2022-09-12T04:09:00.912Z,93.1
2022-09-12T04:10:01.088Z,93.1
2022-09-12T04:11:01.206Z,93.1
2022-09-12T04:12:00.360Z,93.1
2022-09-12T04:13:00.494Z,93.1
2022-09-12T04:14:00.657Z,93
2022-09-12T04:15:00.821Z,92.8
2022-09-12T04:16:00.952Z,92.8
2022-09-12T04:17:01.103Z,92.7
2022-09-12T04:18:05.602Z,92.6
2022-09-12T04:19:00.379Z,92.4
2022-09-12T04:20:00.541Z,92.3
2022-09-12T04:21:00.710Z,92.2
2022-09-12T04:22:00.832Z,92.1
2022-09-12T04:23:00.986Z,92
2022-09-12T04:24:01.131Z,91.9
2022-09-12T04:25:00.287Z,91.8
2022-09-12T04:26:00.442Z,91.7
2022-09-12T04:27:02.853Z,91.7
2022-09-12T04:28:00.719Z,91.7
2022-09-12T04:29:00.856Z,91.8
2022-09-12T04:30:01.018Z,91.8
2022-09-12T04:31:01.232Z,91.7
2022-09-12T04:32:00.300Z,91.6
2022-09-12T04:33:02.230Z,91.5
2022-09-12T04:34:00.596Z,91.5
2022-09-12T04:35:00.732Z,91.6
2022-09-12T04:36:00.911Z,91.5
2022-09-12T04:37:01.032Z,91.4
2022-09-12T04:38:01.174Z,91.3
2022-09-12T04:39:00.311Z,91.4
2022-09-12T04:40:00.570Z,91.6
2022-09-12T04:41:00.618Z,91.9
2022-09-12T04:42:00.766Z,92.2
2022-09-12T04:43:00.904Z,92.1
2022-09-12T04:44:01.056Z,92
2022-09-12T04:45:01.200Z,91.8
2022-09-12T04:46:00.381Z,91.6
2022-09-12T04:47:00.527Z,91.4
2022-09-12T04:48:00.671Z,91.4
2022-09-12T04:49:00.808Z,91.5
2022-09-12T04:50:00.960Z,91.5
2022-09-12T04:51:01.115Z,91.5
2022-09-12T04:52:00.278Z,91.7
2022-09-12T04:53:00.438Z,91.8
2022-09-12T04:54:00.566Z,91.7
2022-09-12T04:55:00.714Z,91.6
2022-09-12T04:56:00.865Z,91.4
2022-09-12T04:57:01.012Z,91.3
2022-09-12T04:58:01.170Z,91.2
2022-09-12T04:59:00.306Z,91.2
2022-09-12T05:00:05.115Z,91.2
2022-09-12T05:01:00.636Z,91.3
2022-09-12T05:02:00.897Z,91.5
2022-09-12T05:03:00.911Z,91.7
2022-09-12T05:04:01.036Z,91.9
2022-09-12T05:05:01.197Z,92
2022-09-12T05:06:00.331Z,92
2022-09-12T05:07:00.484Z,92
2022-09-12T05:08:00.659Z,92.1
2022-09-12T05:09:00.766Z,92
2022-09-12T05:10:00.905Z,91.9
2022-09-12T05:11:01.066Z,91.9
2022-09-12T05:12:05.268Z,91.8
2022-09-12T05:13:00.374Z,91.9
2022-09-12T05:14:00.539Z,92.1
2022-09-12T05:15:00.657Z,92.2
2022-09-12T05:16:00.787Z,92.3
2022-09-12T05:17:00.992Z,92.3
2022-09-12T05:18:01.108Z,92.4
2022-09-12T05:19:01.239Z,92.5
2022-09-12T05:20:00.382Z,92.5
2022-09-12T05:21:00.531Z,92.5
2022-09-12T05:22:00.678Z,92.5
2022-09-12T05:23:00.859Z,92.5
2022-09-12T05:24:00.986Z,92.4
2022-09-12T05:25:01.135Z,92.3
2022-09-12T05:26:00.277Z,92.2
2022-09-12T05:27:00.427Z,92.2
2022-09-12T05:28:00.604Z,92.2
2022-09-12T05:29:00.732Z,92.2
2022-09-12T05:30:00.878Z,92.2
2022-09-12T05:31:01.074Z,92.2
2022-09-12T05:32:01.177Z,92.1
2022-09-12T05:33:00.343Z,92.1
2022-09-12T05:34:00.466Z,92.1
2022-09-12T05:35:00.611Z,92.1
2022-09-12T05:36:00.747Z,92.1
2022-09-12T05:37:00.923Z,92.1
2022-09-12T05:38:01.041Z,92
2022-09-12T05:39:01.183Z,92
2022-09-12T05:40:00.390Z,92
2022-09-12T05:41:00.490Z,92
2022-09-12T05:42:00.658Z,91.9
2022-09-12T05:43:00.786Z,91.8
2022-09-12T05:44:00.940Z,91.7
2022-09-12T05:45:01.085Z,91.7
2022-09-12T05:46:01.244Z,91.6
2022-09-12T05:47:00.407Z,91.7
2022-09-12T05:48:00.528Z,91.6
2022-09-12T05:49:00.675Z,91.7
2022-09-12T05:50:00.833Z,91.8
2022-09-12T05:51:00.982Z,91.8
2022-09-12T05:52:01.150Z,91.8
2022-09-12T05:53:00.279Z,91.9
2022-09-12T05:54:00.425Z,92
2022-09-12T05:55:00.571Z,92
2022-09-12T05:56:00.727Z,91.9
2022-09-12T05:57:00.887Z,91.9
2022-09-12T05:58:01.004Z,91.9
2022-09-12T05:59:01.153Z,91.9
2022-09-12T06:00:00.299Z,91.9
2022-09-12T06:01:00.447Z,91.9
2022-09-12T06:02:00.673Z,91.9
2022-09-12T06:03:00.733Z,91.9
2022-09-12T06:04:00.948Z,92
2022-09-12T06:05:01.022Z,92
2022-09-12T06:06:01.173Z,92
2022-09-12T06:07:00.350Z,92
2022-09-12T06:08:00.461Z,92.1
2022-09-12T06:09:00.616Z,92.1
2022-09-12T06:10:00.774Z,92.1
2022-09-12T06:11:02.420Z,92.1
2022-09-12T06:12:01.107Z,92.1
2022-09-12T06:13:01.228Z,92.1
2022-09-12T06:14:00.371Z,92
2022-09-12T06:15:00.519Z,92.1
2022-09-12T06:16:00.665Z,92.1
2022-09-12T06:17:00.871Z,92.1
2022-09-12T06:18:00.961Z,92
2022-09-12T06:19:01.113Z,91.9
2022-09-12T06:20:00.259Z,91.8
2022-09-12T06:21:00.403Z,91.8
2022-09-12T06:22:00.576Z,91.7
2022-09-12T06:23:00.700Z,91.7
2022-09-12T06:24:00.850Z,91.7
2022-09-12T06:25:01.011Z,91.7
2022-09-12T06:26:01.146Z,91.8
2022-09-12T06:27:00.328Z,91.8
2022-09-12T06:28:00.444Z,91.8
2022-09-12T06:29:00.594Z,91.9
2022-09-12T06:30:00.735Z,91.9
2022-09-12T06:31:00.947Z,91.9
2022-09-12T06:32:01.052Z,91.8
2022-09-12T06:33:01.174Z,91.8
2022-09-12T06:34:00.313Z,91.8
2022-09-12T06:35:00.489Z,91.8
2022-09-12T06:36:00.639Z,91.8
2022-09-12T06:37:00.807Z,91.7
2022-09-12T06:38:00.933Z,91.7
2022-09-12T06:39:01.082Z,91.6
2022-09-12T06:40:02.022Z,91.6
2022-09-12T06:41:00.356Z,91.6
2022-09-12T06:42:00.528Z,91.6
2022-09-12T06:43:00.681Z,91.5
2022-09-12T06:44:00.811Z,91.5
2022-09-12T06:45:00.948Z,91.6
2022-09-12T06:46:01.152Z,91.7
2022-09-12T06:48:00.390Z,91.7
2022-09-12T06:49:00.516Z,91.7
2022-09-12T06:50:00.669Z,91.7
2022-09-12T06:51:00.809Z,91.7
2022-09-12T06:52:00.951Z,91.7
2022-09-12T06:53:01.125Z,91.7
2022-09-12T06:54:01.248Z,91.7
2022-09-12T06:55:00.388Z,91.6
2022-09-12T06:56:00.545Z,91.5
2022-09-12T06:57:00.700Z,91.5
2022-09-12T06:58:00.865Z,91.4
2022-09-12T06:59:00.994Z,91.4
2022-09-12T07:00:01.147Z,91.4
2022-09-12T07:01:00.323Z,91.3
2022-09-12T07:02:00.508Z,91.3
2022-09-12T07:03:00.596Z,91.2
2022-09-12T07:04:00.725Z,91.2
2022-09-12T07:05:00.869Z,91.3
2022-09-12T07:06:01.017Z,91.3
2022-09-12T07:07:01.172Z,91.2
2022-09-12T07:08:00.357Z,91.2
2022-09-12T07:09:00.467Z,91.2
2022-09-12T07:10:00.593Z,91.2
2022-09-12T07:11:00.738Z,91.1
2022-09-12T07:12:00.886Z,91.1
2022-09-12T07:13:01.042Z,91.1
2022-09-12T07:14:01.166Z,91.1
2022-09-12T07:15:00.330Z,91.1
2022-09-12T07:16:00.463Z,91.1
2022-09-12T07:17:00.624Z,91.1
2022-09-12T07:18:00.757Z,91.1
2022-09-12T07:19:00.910Z,91.1
2022-09-12T07:20:01.102Z,91.1
2022-09-12T07:21:01.192Z,91
2022-09-12T07:22:00.343Z,90.9
2022-09-12T07:23:00.497Z,90.8
2022-09-12T07:24:00.661Z,90.9
2022-09-12T07:25:00.831Z,90.8
2022-09-12T07:26:00.957Z,90.7
2022-09-12T07:27:01.102Z,90.5
2022-09-12T07:28:01.243Z,90.3
2022-09-12T07:29:25.260Z,90.2
2022-09-12T07:30:00.559Z,90.2
2022-09-12T07:31:00.718Z,89.9
2022-09-12T07:32:00.837Z,89.8
2022-09-12T07:33:01.002Z,89.5
2022-09-12T07:34:01.131Z,89.4
2022-09-12T07:35:00.301Z,89.6
2022-09-12T07:36:00.432Z,89.7
2022-09-12T07:37:00.582Z,89.4
2022-09-12T07:38:00.726Z,89.3
2022-09-12T07:39:00.875Z,89.2
2022-09-12T07:40:01.084Z,89.1
2022-09-12T07:41:01.191Z,89.2
2022-09-12T07:42:00.334Z,89
2022-09-12T07:43:00.465Z,88.8
2022-09-12T07:44:00.612Z,88.8
2022-09-12T07:45:00.752Z,88.5
2022-09-12T07:46:01.104Z,88.3
2022-09-12T07:47:01.046Z,88.1
2022-09-12T07:48:01.193Z,87.7
2022-09-12T07:49:00.347Z,87.3
2022-09-12T07:50:00.494Z,87.3
2022-09-12T07:51:00.654Z,87.3
2022-09-12T07:52:00.804Z,87.3
2022-09-12T07:53:00.948Z,87.2
2022-09-12T07:54:01.094Z,87.2
2022-09-12T07:55:01.231Z,87.4
2022-09-12T07:56:00.373Z,87.5
2022-09-12T07:57:00.539Z,87.7
2022-09-12T07:58:00.665Z,87.8
2022-09-12T07:59:00.814Z,87.3
2022-09-12T08:00:00.955Z,87.5
2022-09-12T08:01:01.173Z,87.7
2022-09-12T08:02:00.270Z,88.1
2022-09-12T08:03:00.391Z,87.7
2022-09-12T08:04:00.543Z,87.6
2022-09-12T08:05:00.712Z,87.6
2022-09-12T08:06:00.838Z,87.6
2022-09-12T08:07:00.981Z,87.4
2022-09-12T08:08:01.114Z,87.6
2022-09-12T08:09:00.264Z,87.2
2022-09-12T08:10:00.431Z,86.9
2022-09-12T08:11:00.572Z,86.7
2022-09-12T08:12:00.736Z,86.7
2022-09-12T08:13:00.871Z,86.8
2022-09-12T08:14:01.016Z,86.6
2022-09-12T08:15:01.189Z,86.3
2022-09-12T08:16:00.363Z,86.2
2022-09-12T08:17:00.444Z,86.1
2022-09-12T08:18:00.587Z,86.2
2022-09-12T08:19:00.737Z,85.9
2022-09-12T08:20:00.897Z,85.9
2022-09-12T08:21:01.033Z,85.6
2022-09-12T08:22:01.179Z,85.2
2022-09-12T08:23:00.327Z,85.5
2022-09-12T08:24:00.468Z,85.5
2022-09-12T08:25:00.630Z,85.2
2022-09-12T08:26:05.319Z,85
2022-09-12T08:27:00.929Z,84.8
2022-09-12T08:28:01.048Z,84.4
2022-09-12T08:29:01.210Z,85
2022-09-12T08:30:00.348Z,84.9
2022-09-12T08:31:00.526Z,84.4
2022-09-12T08:32:00.659Z,84.2
2022-09-12T08:33:00.790Z,84.2
2022-09-12T08:34:00.945Z,84.7
2022-09-12T08:35:01.088Z,84.4
2022-09-12T08:36:01.236Z,83.5
2022-09-12T08:37:00.390Z,84.1
2022-09-12T08:38:00.527Z,82.8
2022-09-12T08:39:00.756Z,83.3
2022-09-12T08:40:00.965Z,82.9
2022-09-12T08:41:00.974Z,82.8
2022-09-12T08:42:01.203Z,83.2
2022-09-12T08:43:01.258Z,82.9
2022-09-12T08:44:00.404Z,83.2
2022-09-12T08:45:00.568Z,83.3
2022-09-12T08:46:00.732Z,82.9
2022-09-12T08:47:00.852Z,82.8
2022-09-12T08:48:00.988Z,82.9
2022-09-12T08:49:01.143Z,82.7
2022-09-12T08:50:00.283Z,82.2
2022-09-12T08:51:00.440Z,81.5
2022-09-12T08:52:00.588Z,81.5
2022-09-12T08:53:00.715Z,82.3
2022-09-12T08:54:00.873Z,81.8
2022-09-12T08:55:01.050Z,82
2022-09-12T08:56:01.174Z,81.9
2022-09-12T08:57:00.320Z,82.1
2022-09-12T08:58:00.472Z,81.9
2022-09-12T08:59:00.610Z,81.9
2022-09-12T09:00:00.786Z,82
2022-09-12T09:01:00.907Z,82
2022-09-12T09:02:01.150Z,81.7
2022-09-12T09:03:01.195Z,81.5
2022-09-12T09:04:00.352Z,81.1
2022-09-12T09:05:00.509Z,80.8
2022-09-12T09:06:00.669Z,81.5
2022-09-12T09:07:00.806Z,81.9
2022-09-12T09:08:00.950Z,80.5
2022-09-12T09:09:01.104Z,81.3
2022-09-12T09:10:01.249Z,81
2022-09-12T09:11:00.414Z,80.7
2022-09-12T09:12:00.539Z,80.6
2022-09-12T09:13:00.692Z,81.2
2022-09-12T09:14:04.891Z,81.1
2022-09-12T09:15:00.986Z,80.7
2022-09-12T09:16:01.285Z,80.2
2022-09-12T09:17:00.273Z,79.9
2022-09-12T09:18:00.422Z,80.1
2022-09-12T09:19:00.583Z,80.5
2022-09-12T09:20:00.731Z,80.8
2022-09-12T09:21:00.896Z,80.9
2022-09-12T09:22:01.025Z,80.2
2022-09-12T09:23:01.165Z,77.3
2022-09-12T09:24:00.306Z,77.9
2022-09-12T09:25:00.455Z,78.9
2022-09-12T09:26:00.628Z,78.8
2022-09-12T09:27:00.760Z,79.9
2022-09-12T09:28:00.903Z,78.4
2022-09-12T09:29:01.089Z,77.7
2022-09-12T09:30:01.202Z,78.2
2022-09-12T09:31:00.411Z,78.7
2022-09-12T09:32:00.492Z,77.5
2022-09-12T09:33:00.652Z,77.8
2022-09-12T09:34:00.774Z,77.9
2022-09-12T09:35:00.931Z,77.1
2022-09-12T09:36:01.080Z,77.5
2022-09-12T09:37:01.238Z,77.5
2022-09-12T09:38:00.411Z,78.2
2022-09-12T09:39:00.526Z,77.5
2022-09-12T09:40:00.698Z,77.6
2022-09-12T09:41:00.816Z,77.6
2022-09-12T09:42:00.976Z,78.1
2022-09-12T09:43:01.145Z,78.3
2022-09-12T09:44:00.327Z,77
2022-09-12T09:45:00.408Z,77.2
2022-09-12T09:46:00.663Z,77.7
2022-09-12T09:47:00.711Z,78.1
2022-09-12T09:48:00.880Z,78.8
2022-09-12T09:49:02.047Z,78.6
2022-09-12T09:50:01.150Z,78.8
2022-09-12T09:51:00.293Z,79.2
2022-09-12T09:52:00.748Z,79.4
2022-09-12T09:53:00.615Z,79.7
2022-09-12T09:54:00.736Z,80.6
2022-09-12T09:55:00.898Z,79.3
2022-09-12T09:56:01.104Z,79.2
2022-09-12T09:57:01.246Z,78.9
2022-09-12T09:58:00.370Z,78.4
2022-09-12T09:59:00.494Z,78.8
2022-09-12T10:00:00.635Z,79.4
2022-09-12T10:01:00.846Z,79.6
2022-09-12T10:02:01.011Z,78.8
2022-09-12T10:03:01.134Z,79.4
2022-09-12T10:04:01.211Z,78.8
2022-09-12T10:05:00.363Z,78.5
2022-09-12T10:06:00.542Z,77.9
2022-09-12T10:07:00.658Z,77.4
2022-09-12T10:08:00.827Z,77.9
2022-09-12T10:09:00.987Z,78.9
2022-09-12T10:10:01.131Z,78.4
2022-09-12T10:11:00.302Z,78.2
2022-09-12T10:12:00.424Z,76.6
2022-09-12T10:13:00.570Z,76.2
2022-09-12T10:14:00.729Z,76.2
2022-09-12T10:15:00.871Z,76.5
2022-09-12T10:16:01.095Z,75.7
2022-09-12T10:17:01.198Z,76.7
2022-09-12T10:18:00.319Z,74.9
2022-09-12T10:19:00.473Z,75.4
2022-09-12T10:20:19.735Z,75.5
2022-09-12T10:21:00.754Z,74.7
2022-09-12T10:22:00.947Z,75.6
2022-09-12T10:23:01.053Z,75.2
2022-09-12T10:24:01.205Z,74.9
2022-09-12T10:25:00.360Z,75.4
2022-09-12T10:26:00.501Z,75.8
2022-09-12T10:27:00.657Z,74.2
2022-09-12T10:28:00.791Z,73.6
2022-09-12T10:29:00.938Z,73.9
2022-09-12T10:30:01.093Z,74.3
2022-09-12T10:31:01.315Z,74.8
2022-09-12T10:32:00.412Z,75.2
2022-09-12T10:33:00.545Z,73.8
2022-09-12T10:34:00.698Z,74.6
2022-09-12T10:35:00.836Z,72.3
2022-09-12T10:36:01.007Z,71.7
2022-09-12T10:37:01.129Z,71.9
2022-09-12T10:38:00.263Z,73.9
2022-09-12T10:39:00.406Z,73.4
2022-09-12T10:40:00.603Z,71.8
2022-09-12T10:41:00.720Z,73.1
2022-09-12T10:42:00.859Z,73.7
2022-09-12T10:43:01.008Z,73.3
2022-09-12T10:44:01.146Z,73.1
2022-09-12T10:45:00.295Z,74.3
2022-09-12T10:46:00.536Z,72.7
2022-09-12T10:47:00.602Z,73.2
2022-09-12T10:48:05.455Z,73.3
2022-09-12T10:49:00.868Z,73.2
2022-09-12T10:50:01.030Z,72.5
2022-09-12T10:51:01.167Z,72.7
2022-09-12T10:52:00.315Z,72.3
2022-09-12T10:53:00.468Z,71.4
2022-09-12T10:54:00.648Z,72.3
2022-09-12T10:55:00.811Z,73.6
2022-09-12T10:56:00.902Z,74.3
2022-09-12T10:57:01.090Z,72.8
2022-09-12T10:58:01.187Z,72.8
2022-09-12T10:59:00.325Z,73.9
2022-09-12T11:00:00.479Z,73.2
2022-09-12T11:01:00.626Z,73.7
2022-09-12T11:02:00.858Z,72.5
2022-09-12T11:03:00.919Z,71.7
2022-09-12T11:04:01.062Z,72.7
2022-09-12T11:05:01.211Z,74.3
2022-09-12T11:06:00.357Z,74.6
2022-09-12T11:07:00.538Z,74.3
2022-09-12T11:08:00.651Z,72.7
2022-09-12T11:09:00.805Z,71.6
2022-09-12T11:10:00.950Z,72.2
2022-09-12T11:11:01.102Z,70.9
2022-09-12T11:12:01.271Z,70.9
2022-09-12T11:13:00.390Z,70.9
2022-09-12T11:14:00.542Z,71.3
2022-09-12T11:15:00.693Z,68.9
2022-09-12T11:16:00.877Z,70.6
2022-09-12T11:17:01.013Z,69.7
2022-09-12T11:18:01.137Z,67.4
2022-09-12T11:19:00.273Z,69.5
2022-09-12T11:20:00.435Z,69.3
2022-09-12T11:21:00.584Z,68.5
2022-09-12T11:22:00.757Z,69.2
2022-09-12T11:23:00.881Z,70.8
2022-09-12T11:24:01.041Z,69.2
2022-09-12T11:25:01.195Z,70.3
2022-09-12T11:26:00.347Z,69.2
2022-09-12T11:27:00.528Z,68.4
2022-09-12T11:28:00.661Z,69.1
2022-09-12T11:29:00.802Z,68.1
2022-09-12T11:30:00.945Z,69.1
2022-09-12T11:31:01.201Z,67.8
2022-09-12T11:32:01.270Z,68.6
2022-09-12T11:33:00.417Z,67.9
2022-09-12T11:34:00.540Z,67.6
2022-09-12T11:35:00.698Z,68.2
2022-09-12T11:36:00.832Z,68.4
2022-09-12T11:37:01.020Z,68
2022-09-12T11:38:01.144Z,68.5
2022-09-12T11:39:00.274Z,66.4
2022-09-12T11:40:00.490Z,67.7
2022-09-12T11:41:00.571Z,68.9
2022-09-12T11:42:00.729Z,67.8
2022-09-12T11:43:00.896Z,67.7
2022-09-12T11:44:01.009Z,68.1
2022-09-12T11:45:01.155Z,68.7
2022-09-12T11:46:00.323Z,68.8
2022-09-12T11:47:00.447Z,69.2
2022-09-12T11:48:00.611Z,67.2
2022-09-12T11:49:00.748Z,66.2
2022-09-12T11:50:00.896Z,66.9
2022-09-12T11:51:01.043Z,67.3
2022-09-12T11:52:01.197Z,67.3
2022-09-12T11:53:00.380Z,67.2
2022-09-12T11:54:00.483Z,67.2
2022-09-12T11:55:00.621Z,67.4
2022-09-12T11:56:00.775Z,68.2
2022-09-12T11:57:00.925Z,67.9
2022-09-12T11:58:01.086Z,67.4
2022-09-12T11:59:01.217Z,65.7
2022-09-12T12:00:00.361Z,66.8
2022-09-12T12:01:00.517Z,67.2
2022-09-12T12:02:00.728Z,67
2022-09-12T12:03:00.809Z,67.1
2022-09-12T12:04:01.016Z,66.5
2022-09-12T12:05:01.102Z,66.7
2022-09-12T12:06:01.255Z,67.3
2022-09-12T12:07:00.423Z,66.3
2022-09-12T12:08:00.600Z,66.7
2022-09-12T12:09:00.733Z,66.8
2022-09-12T12:10:00.881Z,67.2
2022-09-12T12:11:01.037Z,68.9
2022-09-12T12:12:01.183Z,69.2
2022-09-12T12:13:00.314Z,67.2
2022-09-12T12:14:00.455Z,67.5
2022-09-12T12:15:00.602Z,67.8
2022-09-12T12:16:00.795Z,69.5
2022-09-12T12:17:00.933Z,65.3
2022-09-12T12:18:01.042Z,66.5
2022-09-12T12:19:01.198Z,67.7
2022-09-12T12:20:05.473Z,66.4
2022-09-12T12:21:00.489Z,66.2
2022-09-12T12:22:00.634Z,67.8
2022-09-12T12:23:00.806Z,67.4
2022-09-12T12:24:00.924Z,66.4
2022-09-12T12:25:01.079Z,67.8
2022-09-12T12:26:01.219Z,66.6
2022-09-12T12:27:00.370Z,66.9
2022-09-12T12:28:00.528Z,66.4
2022-09-12T12:29:00.670Z,66.8
2022-09-12T12:30:00.807Z,66.7
2022-09-12T12:31:00.995Z,67.1
2022-09-12T12:32:01.087Z,65.3
2022-09-12T12:33:01.241Z,65.9
2022-09-12T12:34:00.395Z,67.3
2022-09-12T12:35:00.542Z,68
2022-09-12T12:36:00.693Z,67.1
2022-09-12T12:37:05.510Z,66.6
2022-09-12T12:38:00.978Z,67.6
2022-09-12T12:39:01.137Z,67.7
2022-09-12T12:40:00.393Z,68.7
2022-09-12T12:41:00.421Z,68.6
2022-09-12T12:42:00.601Z,70
2022-09-12T12:43:00.722Z,69.7
2022-09-12T12:44:00.871Z,69.5
2022-09-12T12:45:01.018Z,68.1
2022-09-12T12:46:01.204Z,67.2
2022-09-12T12:47:00.341Z,66.4
2022-09-12T12:48:00.499Z,66.3
2022-09-12T12:49:00.618Z,66.6
2022-09-12T12:50:00.765Z,67.2
2022-09-12T12:51:00.913Z,68.3
2022-09-12T12:52:01.062Z,66.4
2022-09-12T12:53:01.225Z,66.4
2022-09-12T12:54:00.351Z,66.8
2022-09-12T12:55:00.495Z,67.1
2022-09-12T12:56:00.640Z,65.4
2022-09-12T12:57:00.792Z,65.8
2022-09-12T12:58:00.951Z,65.1
2022-09-12T12:59:01.113Z,65.6
2022-09-12T13:00:01.238Z,65.7
2022-09-12T13:01:00.386Z,66.7
2022-09-12T13:02:00.571Z,66.3
2022-09-12T13:03:00.690Z,64.4
2022-09-12T13:04:00.847Z,65.5
2022-09-12T13:05:00.980Z,65.7
2022-09-12T13:06:01.134Z,64.8
2022-09-12T13:07:02.569Z,66.3
2022-09-12T13:08:00.435Z,64.3
2022-09-12T13:09:00.595Z,63.6
2022-09-12T13:10:00.731Z,64.6
2022-09-12T13:11:00.884Z,63.8
2022-09-12T13:12:01.033Z,63
2022-09-12T13:13:01.186Z,62.6
2022-09-12T13:14:00.308Z,63.2
2022-09-12T13:15:00.455Z,66.1
2022-09-12T13:16:00.691Z,65.5
2022-09-12T13:17:00.757Z,65.9
2022-09-12T13:18:00.918Z,65.7
2022-09-12T13:19:01.043Z,65.5
2022-09-12T13:20:24.071Z,64.8
2022-09-12T13:21:00.351Z,65
2022-09-12T13:22:00.495Z,64.6
2022-09-12T13:23:00.669Z,66.4
2022-09-12T13:24:00.797Z,65.6